createdAt,value
2018-08-25T00:09:53.569Z,27.6
2018-08-25T00:19:52.805Z,27.6
2018-08-25T00:29:52.048Z,27.6
2018-08-25T00:39:51.289Z,27.6
2018-08-25T00:49:50.532Z,27.6
2018-08-25T00:59:49.774Z,27.6
2018-08-25T01:09:49.012Z,27.6
2018-08-25T01:19:48.252Z,27.7
2018-08-25T01:29:47.495Z,27.7
2018-08-25T01:39:46.733Z,27.7
2018-08-25T01:49:45.972Z,27.7
2018-08-25T01:59:45.217Z,27.7
2018-08-25T02:09:44.457Z,27.8
2018-08-25T02:19:43.700Z,27.7
2018-08-25T02:29:42.941Z,27.8
2018-08-25T02:39:42.176Z,27.8
2018-08-25T02:49:41.419Z,27.8
2018-08-25T02:59:40.655Z,27.7
2018-08-25T03:09:39.895Z,27.8
2018-08-25T03:19:39.140Z,27.7
2018-08-25T03:29:38.377Z,27.8
2018-08-25T03:39:37.617Z,27.8
2018-08-25T03:49:36.855Z,27.8
2018-08-25T03:59:36.095Z,27.8
2018-08-25T04:09:35.333Z,27.7
2018-08-25T04:19:34.573Z,27.7
2018-08-25T04:29:33.811Z,27.8
2018-08-25T04:39:33.057Z,27.8
2018-08-25T04:49:32.289Z,27.8
2018-08-25T04:59:31.528Z,27.8
2018-08-25T05:09:30.766Z,27.8
2018-08-25T05:19:30.005Z,27.8
2018-08-25T05:29:29.244Z,27.8
2018-08-25T05:39:28.485Z,27.8
2018-08-25T05:49:27.727Z,27.8
2018-08-25T05:59:26.969Z,27.8
2018-08-25T06:09:26.214Z,27.8
2018-08-25T06:19:25.455Z,27.8
2018-08-25T06:29:24.690Z,27.8
2018-08-25T06:39:23.934Z,27.7
2018-08-25T06:49:23.173Z,27.8
2018-08-25T06:59:22.465Z,27.8
2018-08-25T07:09:21.661Z,27.8
2018-08-25T07:19:20.895Z,27.8
2018-08-25T07:29:20.141Z,27.8
2018-08-25T07:39:19.387Z,27.8
2018-08-25T07:49:18.671Z,27.8
2018-08-25T07:59:17.966Z,27.8
2018-08-25T08:09:17.102Z,27.8
2018-08-25T08:19:16.394Z,27.8
2018-08-25T08:29:15.586Z,27.8
2018-08-25T08:39:14.829Z,27.9
2018-08-25T08:49:14.073Z,27.9
2018-08-25T08:59:13.313Z,27.9
2018-08-25T09:09:12.556Z,27.9
2018-08-25T09:19:11.808Z,27.9
2018-08-25T09:29:11.052Z,27.9
2018-08-25T09:39:10.285Z,27.9
2018-08-25T09:49:09.527Z,27.9
2018-08-25T09:59:08.840Z,27.9
2018-08-25T10:09:08.018Z,27.9
2018-08-25T10:19:07.258Z,27.9
2018-08-25T10:29:06.512Z,27.9
2018-08-25T10:39:05.744Z,27.9
2018-08-25T10:49:04.987Z,27.9
2018-08-25T10:59:04.230Z,28
2018-08-25T11:09:03.483Z,28
2018-08-25T11:19:02.718Z,28.1
2018-08-25T11:29:01.967Z,28.1
2018-08-25T11:39:01.209Z,28.1
2018-08-25T11:49:00.453Z,28.1
2018-08-25T11:58:59.704Z,28.1
2018-08-25T12:08:58.941Z,28.1
2018-08-25T12:18:58.186Z,28.1
2018-08-25T12:28:57.438Z,28.1
2018-08-25T12:38:56.678Z,28.1
2018-08-25T12:48:55.969Z,28.1
2018-08-25T12:58:55.168Z,28.1
2018-08-25T13:08:54.410Z,28.2
2018-08-25T13:18:53.680Z,28.3
2018-08-25T13:28:52.899Z,28.3
2018-08-25T13:38:52.140Z,28.3
2018-08-25T13:48:51.387Z,28.1
2018-08-25T13:58:50.633Z,28
2018-08-25T14:08:49.881Z,27.9
2018-08-25T14:18:49.124Z,27.9
2018-08-25T14:28:48.456Z,27.7
2018-08-25T14:38:47.722Z,27.7
2018-08-25T14:48:46.861Z,27.7
2018-08-25T14:58:46.109Z,27.6
2018-08-25T15:08:45.350Z,27.7
2018-08-25T15:18:44.600Z,27.8
2018-08-25T15:28:43.850Z,27.9
2018-08-25T15:38:43.090Z,28
2018-08-25T15:48:42.357Z,28.1
2018-08-25T15:58:41.583Z,28.1
2018-08-25T16:08:40.833Z,28.1
2018-08-25T16:18:40.080Z,28.1
2018-08-25T16:28:39.376Z,28.1
2018-08-25T16:38:38.622Z,28
2018-08-25T16:48:37.821Z,27.9
2018-08-25T16:58:37.097Z,27.9
2018-08-25T17:08:36.315Z,27.9
2018-08-25T17:18:35.567Z,27.6
2018-08-25T17:28:34.812Z,27.5
2018-08-25T17:38:34.119Z,27.4
2018-08-25T17:48:33.316Z,27.3
2018-08-25T17:58:32.556Z,27.3
2018-08-25T18:08:31.799Z,27.2
2018-08-25T18:18:31.065Z,27.1
2018-08-25T18:28:30.300Z,27.1
2018-08-25T18:38:29.545Z,26.9
2018-08-25T18:48:28.801Z,27.1
2018-08-25T18:58:28.059Z,27.2
2018-08-25T19:08:27.322Z,27.4
2018-08-25T19:18:26.529Z,27.5
2018-08-25T19:28:25.788Z,27.6
2018-08-25T19:38:25.021Z,27.7
2018-08-25T19:48:24.280Z,27.7
2018-08-25T19:58:23.513Z,27.8
2018-08-25T20:08:22.763Z,27.8
2018-08-25T20:18:22.004Z,27.9
2018-08-25T20:28:21.251Z,27.9
2018-08-25T20:38:20.606Z,27.9
2018-08-25T20:48:19.790Z,27.9
2018-08-25T20:58:18.991Z,28
2018-08-25T21:08:18.230Z,28.1
2018-08-25T21:18:17.489Z,28.1
2018-08-25T21:28:16.728Z,28.1
2018-08-25T21:38:15.958Z,28.1
2018-08-25T21:48:15.201Z,28.1
2018-08-25T21:58:14.448Z,28.1
2018-08-25T22:08:13.692Z,28.1
2018-08-25T22:18:12.934Z,28.1
2018-08-25T22:28:12.184Z,28.1
2018-08-25T22:38:11.470Z,28.1
2018-08-25T22:48:10.664Z,28.1
2018-08-25T22:58:09.908Z,28.1
2018-08-25T23:08:09.150Z,28.1
2018-08-25T23:18:08.399Z,28.2
2018-08-25T23:28:07.635Z,28.2
2018-08-25T23:38:06.880Z,28.2
2018-08-25T23:48:06.166Z,28.2
2018-08-25T23:58:05.377Z,28.1
